createdAt,value
2019-02-17T00:03:01.296Z,2.8
2019-02-17T00:18:01.412Z,2.8
2019-02-17T00:33:01.366Z,2.8
2019-02-17T00:48:01.288Z,2.8
2019-02-17T01:03:01.372Z,2.8
2019-02-17T01:18:01.431Z,2.9
2019-02-17T01:33:01.457Z,2.8
2019-02-17T01:43:01.393Z,2.8
2019-02-17T01:53:01.362Z,2.8
2019-02-17T01:58:01.409Z,2.7
2019-02-17T02:03:01.290Z,2.8
2019-02-17T02:08:01.362Z,2.8
2019-02-17T02:23:01.356Z,2.7
2019-02-17T02:28:01.300Z,2.7
2019-02-17T02:33:01.300Z,2.7
2019-02-17T02:38:01.331Z,2.7
2019-02-17T02:53:01.453Z,2.7
2019-02-17T03:03:01.358Z,2.7
2019-02-17T03:18:01.345Z,2.7
2019-02-17T03:23:01.301Z,2.6
2019-02-17T03:28:02.153Z,2.5
2019-02-17T03:38:01.303Z,2.5
2019-02-17T03:49:01.340Z,2.5
2019-02-17T03:54:01.291Z,2.5
2019-02-17T04:09:01.407Z,2.4
2019-02-17T04:14:01.337Z,2.4
2019-02-17T04:29:01.366Z,2.4
2019-02-17T04:44:01.355Z,2.5
2019-02-17T04:54:01.432Z,2.6
2019-02-17T05:04:01.392Z,2.6
2019-02-17T05:19:01.391Z,2.6
2019-02-17T05:34:01.419Z,2.6
2019-02-17T05:44:01.279Z,2.6
2019-02-17T05:59:01.426Z,2.6
2019-02-17T06:09:01.373Z,2.6
2019-02-17T06:14:01.288Z,2.6
2019-02-17T06:29:01.415Z,2.5
2019-02-17T06:34:01.276Z,2.5
2019-02-17T06:44:01.405Z,2.4
2019-02-17T07:00:01.412Z,2.4
2019-02-17T07:10:01.411Z,2.4
2019-02-17T07:15:01.423Z,2.5
2019-02-17T07:25:01.906Z,2.5
2019-02-17T07:30:01.619Z,2.5
2019-02-17T07:35:01.365Z,2.5
2019-02-17T07:45:01.360Z,2.6
2019-02-17T07:51:01.278Z,2.7
2019-02-17T07:56:01.340Z,2.7
2019-02-17T08:11:04.519Z,2.8
2019-02-17T08:26:01.425Z,2.7
2019-02-17T08:41:01.353Z,2.7
2019-02-17T08:46:01.363Z,2.7
2019-02-17T09:01:01.349Z,2.6
2019-02-17T09:11:01.344Z,2.6
2019-02-17T09:27:01.284Z,2.5
2019-02-17T09:42:01.354Z,2.4
2019-02-17T09:52:01.351Z,2.3
2019-02-17T10:02:01.431Z,2.2
2019-02-17T10:12:01.360Z,3.0
2019-02-17T10:18:01.438Z,2.9
2019-02-17T10:23:01.320Z,6.0
2019-02-17T10:28:01.402Z,6.1
2019-02-17T10:33:01.343Z,8.3
2019-02-17T10:38:01.380Z,8.4
2019-02-17T10:43:03.829Z,10.1
2019-02-17T10:48:01.431Z,10.2
2019-02-17T10:53:01.328Z,11.5
2019-02-17T10:58:01.423Z,11.3
2019-02-17T11:03:01.284Z,12.5
2019-02-17T11:08:01.353Z,12.4
2019-02-17T11:13:01.309Z,14.9
2019-02-17T11:18:01.456Z,14.9
2019-02-17T11:23:06.273Z,15.0
2019-02-17T11:28:01.386Z,15.0
2019-02-17T11:33:01.284Z,16.9
2019-02-17T11:38:01.405Z,17.0
2019-02-17T11:43:01.278Z,20.6
2019-02-17T11:48:01.354Z,21.1
2019-02-17T11:53:01.298Z,22.3
2019-02-17T11:58:01.374Z,22.3
2019-02-17T12:03:08.597Z,21.3
2019-02-17T12:08:01.521Z,20.9
2019-02-17T12:18:01.389Z,21.5
2019-02-17T12:23:01.312Z,22.9
2019-02-17T12:28:01.454Z,23.0
2019-02-17T12:33:01.328Z,25.4
2019-02-17T12:38:01.451Z,25.5
2019-02-17T12:43:01.318Z,26.8
2019-02-17T12:48:01.402Z,27.1
2019-02-17T12:53:01.320Z,26.2
2019-02-17T12:58:01.352Z,26.0
2019-02-17T13:03:01.287Z,26.6
2019-02-17T13:08:01.436Z,26.8
2019-02-17T13:13:06.283Z,26.8
2019-02-17T13:18:01.426Z,26.9
2019-02-17T13:23:01.321Z,27.9
2019-02-17T13:28:01.386Z,28.0
2019-02-17T13:33:01.340Z,29.2
2019-02-17T13:38:01.463Z,29.1
2019-02-17T13:43:01.338Z,29.7
2019-02-17T13:48:01.403Z,29.9
2019-02-17T13:53:12.168Z,29.7
2019-02-17T13:58:01.399Z,29.9
2019-02-17T14:03:01.315Z,29.5
2019-02-17T14:08:01.341Z,29.5
2019-02-17T14:13:01.292Z,30.0
2019-02-17T14:18:01.460Z,31.0
2019-02-17T14:23:01.295Z,31.5
2019-02-17T14:28:01.413Z,30.7
2019-02-17T14:33:01.295Z,31.1
2019-02-17T14:38:01.341Z,32.4
2019-02-17T14:43:01.269Z,32.7
2019-02-17T14:48:02.410Z,32.3
2019-02-17T14:58:05.994Z,33.3
2019-02-17T15:03:01.318Z,33.1
2019-02-17T15:08:01.403Z,32.8
2019-02-17T15:13:01.279Z,33.1
2019-02-17T15:18:01.354Z,32.3
2019-02-17T15:23:01.282Z,32.4
2019-02-17T15:28:01.343Z,32.2
2019-02-17T15:33:04.479Z,32.6
2019-02-17T15:38:02.301Z,31.5
2019-02-17T15:48:02.373Z,28.2
2019-02-17T15:53:01.281Z,28.1
2019-02-17T15:58:01.357Z,26.2
2019-02-17T16:03:01.325Z,26.2
2019-02-17T16:08:01.425Z,25.5
2019-02-17T16:13:01.290Z,25.7
2019-02-17T16:19:01.276Z,24.9
2019-02-17T16:24:01.290Z,25.2
2019-02-17T16:29:01.284Z,24.9
2019-02-17T16:34:01.411Z,25.0
2019-02-17T16:39:01.273Z,23.7
2019-02-17T16:44:01.287Z,23.7
2019-02-17T16:49:01.280Z,23.3
2019-02-17T16:54:01.288Z,23.2
2019-02-17T16:59:01.280Z,21.7
2019-02-17T17:04:01.295Z,21.8
2019-02-17T17:09:01.314Z,19.2
2019-02-17T17:14:01.340Z,19.4
2019-02-17T17:19:01.294Z,17.2
2019-02-17T17:24:06.402Z,17.3
2019-02-17T17:29:01.281Z,14.8
2019-02-17T17:34:01.291Z,14.6
2019-02-17T17:39:01.276Z,11.0
2019-02-17T17:44:02.348Z,10.9
2019-02-17T17:49:01.297Z,9.4
2019-02-17T17:54:06.412Z,9.2
2019-02-17T17:59:01.325Z,8.9
2019-02-17T18:04:01.399Z,9.0
2019-02-17T18:09:06.293Z,4.8
2019-02-17T18:14:06.352Z,4.9
2019-02-17T18:19:01.337Z,4.0
2019-02-17T18:24:01.350Z,4.1
2019-02-17T18:29:01.302Z,3.2
2019-02-17T18:34:01.340Z,3.2
2019-02-17T18:39:01.308Z,2.6
2019-02-17T18:44:01.393Z,2.6
2019-02-17T18:49:01.288Z,2.6
2019-02-17T18:54:01.327Z,2.5
2019-02-17T18:59:01.294Z,4.8
2019-02-17T19:04:01.322Z,4.8
2019-02-17T19:09:01.301Z,3.1
2019-02-17T19:14:01.295Z,3.1
2019-02-17T19:19:01.314Z,5.4
2019-02-17T19:25:01.437Z,5.4
2019-02-17T19:30:01.289Z,6.5
2019-02-17T19:35:01.400Z,6.4
2019-02-17T19:40:01.302Z,2.4
2019-02-17T19:45:01.356Z,2.4
2019-02-17T19:50:01.282Z,2.4
2019-02-17T19:55:01.646Z,2.4
2019-02-17T20:00:01.397Z,2.4
2019-02-17T20:10:01.425Z,2.4
2019-02-17T20:16:01.399Z,2.4
2019-02-17T20:21:01.241Z,4.0
2019-02-17T20:26:01.443Z,3.9
2019-02-17T20:31:01.314Z,6.0
2019-02-17T20:36:03.328Z,5.9
2019-02-17T20:41:01.293Z,7.7
2019-02-17T20:46:01.354Z,9.9
2019-02-17T20:51:01.329Z,9.7
2019-02-17T20:56:01.383Z,9.7
2019-02-17T21:01:01.317Z,9.0
2019-02-17T21:06:01.455Z,9.2
2019-02-17T21:11:01.324Z,8.6
2019-02-17T21:21:01.424Z,8.8
2019-02-17T21:26:01.464Z,8.7
2019-02-17T21:31:01.332Z,7.2
2019-02-17T21:36:01.462Z,7.1
2019-02-17T21:41:09.734Z,5.9
2019-02-17T21:46:01.454Z,5.8
2019-02-17T21:51:01.315Z,5.5
2019-02-17T21:56:01.368Z,5.5
2019-02-17T22:01:03.472Z,6.1
2019-02-17T22:06:01.372Z,6.0
2019-02-17T22:11:01.281Z,4.9
2019-02-17T22:16:01.415Z,4.9
2019-02-17T22:21:01.305Z,4.3
2019-02-17T22:26:06.357Z,4.3
2019-02-17T22:31:01.269Z,4.2
2019-02-17T22:41:01.375Z,4.6
2019-02-17T22:51:01.361Z,4.0
2019-02-17T22:56:01.416Z,4.0
2019-02-17T23:01:01.407Z,4.5
2019-02-17T23:16:01.355Z,3.7
2019-02-17T23:21:01.322Z,2.6
2019-02-17T23:26:01.420Z,2.6
2019-02-17T23:31:01.339Z,2.5
2019-02-17T23:36:01.286Z,2.5
2019-02-17T23:41:01.322Z,3.3
2019-02-17T23:51:01.390Z,2.2
2019-02-17T23:56:01.352Z,2.3
